Main page
METAR-TAF:

METAR-TAF

Airports :

Isle of Man Airport

Isle of Man,

latitude: 54-05N, longitude: 004-38W, elevation: 17 m

Current weather observation

The report was made 1 hour and 13 minutes ago, at 19:50 UTC
Wind 11 kt from the West
Temperature 14°C
Humidity 82%
Pressure 1002 hPa
Visibility 10 km or more
Few clouds at a height of 1300 ft

METAR: EGNS 281950Z 28011KT 9999 FEW013 14/11 Q1002

Time: 22:03 (21:03 UTC)

Forecast

The report was made 4 hours and 3 minutes ago, at 17:00 UTC
Forecast valid from 28 at 18 UTC to 28 at 21 UTC
Wind 12 kt from the West
Visibility 10 km or more
Few clouds at a height of 1500 ft
Scattered clouds at a height of 2500 ft
Probability 30% :
Temporary
from 28 at 18 UTC to 28 at 21 UTC
Visibility: 6000 m
rain showers

TAF: EGNS 281700Z 2818/2821 27012KT 9999 FEW015 SCT025 PROB30 TEMPO 2818/2821 6000 SHRA

Weather observations and forecasts of more than 4000 airports (METAR and TAF reports).

The available stations are represented by yellow and red dots on the map.

Hover mouse over dot to see the name of the station.

Then click to see weather observations and forecasts.

To change the map : click on the green buttons with a black cross to zoom in, on the green button with a dash to zoom out, or on the green arrows for adjacent maps.


METAR-TAF: